Main page
METAR-TAF:

METAR-TAF

Airports :

Ilorin, Nigeria

Ilorin International Airport

latitude: 08-29N, longitude: 004-35E, elevation: 308 m

METAR: missing

Time: 09:36 (08:36 UTC)

Forecast

The report was made 4 hours and 36 minutes ago, at 04:00 UTC
Forecast valid from 28 at 06 UTC to 29 at 12 UTC
Wind 6 kt from the South/Southwest
Visibility 10 km or more
Few clouds at a height of 800 ft
Temporary
from 28 at 08 UTC to 28 at 11 UTC
Broken clouds at a height of 1200 ft
Temporary
from 28 at 15 UTC to 28 at 20 UTC
Few clouds at a height of 2000 ft, Cumulonimbus.
thunderstorm

TAF: DNIL 280400Z 2806/2912 21006KT 9999 FEW008 TEMPO 2808/2811 BKN012 TEMPO 2815/2820 TS FEW020CB

Weather observations and forecasts of more than 4000 airports (METAR and TAF reports).

The available stations are represented by yellow and red dots on the map.

Hover mouse over dot to see the name of the station.

Then click to see weather observations and forecasts.

To change the map : click on the green buttons with a black cross to zoom in, on the green button with a dash to zoom out, or on the green arrows for adjacent maps.


METAR-TAF: